Time;durP1;ratioP1;P1;durP2;ratioP2;P2;SDS_P1;SDS_P2;PMS_P1;PMS_P2;Temp;Humidity;BMP_temperature;BMP_pressure;BME280_temperature;BME280_humidity;BME280_pressure;Samples;Min_cycle;Max_cycle;Signal;HPM_P1;HPM_P2
2021/10/11 06:02:04;;;;;;;37.10;22.48;;;12.90;99.90;;;;;;6193169;22;20053;-79
2021/10/11 06:04:31;;;;;;;33.67;22.75;;;12.90;99.90;;;;;;6211320;23;20067;-79
2021/10/11 06:06:57;;;;;;;42.55;24.25;;;12.80;99.90;;;;;;6212511;23;20378;-80
2021/10/11 06:09:24;;;;;;;35.67;21.85;;;12.80;99.90;;;;;;6184664;23;20442;-82
2021/10/11 06:11:51;;;;;;;40.05;23.92;;;12.80;99.90;;;;;;6211136;23;20021;-82
2021/10/11 06:14:18;;;;;;;42.22;24.77;;;12.80;99.90;;;;;;6209957;23;20021;-82
2021/10/11 06:16:45;;;;;;;42.90;26.17;;;12.70;99.90;;;;;;6211036;23;20024;-80
2021/10/11 06:19:14;;;;;;;45.90;25.98;;;12.70;99.90;;;;;;6210821;23;20020;-79
2021/10/11 06:21:41;;;;;;;44.70;25.58;;;12.70;99.90;;;;;;6211499;23;20387;-79
2021/10/11 06:24:11;;;;;;;45.55;27.63;;;12.70;99.90;;;;;;6210125;23;20079;-79
2021/10/11 06:26:38;;;;;;;44.85;26.55;;;12.70;99.90;;;;;;6209229;23;20021;-79
2021/10/11 06:29:06;;;;;;;48.65;27.00;;;12.70;99.90;;;;;;6208957;23;20406;-79
2021/10/11 06:31:33;;;;;;;49.85;27.45;;;12.70;99.90;;;;;;6208146;23;20045;-79
2021/10/11 06:34:01;;;;;;;46.47;27.38;;;12.70;99.90;;;;;;6209841;23;20023;-79
2021/10/11 06:36:29;;;;;;;48.67;27.98;;;12.70;99.90;;;;;;6209713;23;20017;-79
2021/10/11 06:38:56;;;;;;;54.85;28.85;;;12.70;99.90;;;;;;6211119;23;20063;-79
2021/10/11 06:41:24;;;;;;;53.05;28.92;;;12.60;99.90;;;;;;6185449;23;20025;-79
2021/10/11 06:43:51;;;;;;;45.50;28.23;;;12.60;99.90;;;;;;6212721;23;20017;-79
2021/10/11 06:46:18;;;;;;;51.33;27.33;;;12.60;99.90;;;;;;6211726;23;20071;-79
2021/10/11 06:48:46;;;;;;;54.75;30.05;;;12.60;99.90;;;;;;6212349;23;20016;-79
2021/10/11 06:51:13;;;;;;;57.30;30.45;;;12.70;99.90;;;;;;6211473;23;20023;-79
2021/10/11 06:53:40;;;;;;;59.00;28.70;;;12.70;99.90;;;;;;6211585;23;20028;-79
2021/10/11 06:56:07;;;;;;;49.88;28.10;;;12.60;99.90;;;;;;6210528;23;20021;-79
2021/10/11 06:58:34;;;;;;;53.70;28.80;;;12.70;99.90;;;;;;6212082;23;20024;-79
2021/10/11 07:01:01;;;;;;;63.05;30.25;;;12.70;99.90;;;;;;6211340;23;20024;-79
2021/10/11 07:03:30;;;;;;;59.58;29.67;;;12.70;99.90;;;;;;6209641;23;20058;-79
2021/10/11 07:06:03;;;;;;;54.80;29.08;;;12.70;99.90;;;;;;6212528;23;20489;-79
2021/10/11 07:08:32;;;;;;;59.92;30.30;;;12.70;99.90;;;;;;6186168;23;20024;-79
2021/10/11 07:11:00;;;;;;;54.03;30.70;;;12.70;99.90;;;;;;6212248;23;20016;-79
2021/10/11 07:13:27;;;;;;;52.47;29.47;;;12.80;99.90;;;;;;6211078;23;20035;-78
2021/10/11 07:15:58;;;;;;;55.38;30.20;;;12.80;99.90;;;;;;6212646;23;20008;-79
2021/10/11 07:18:25;;;;;;;56.38;28.55;;;12.80;99.90;;;;;;6211539;23;20024;-78
2021/10/11 07:20:52;;;;;;;52.22;28.60;;;12.80;99.90;;;;;;6210997;23;20668;-79
2021/10/11 07:23:20;;;;;;;52.90;30.08;;;12.90;99.90;;;;;;6210539;23;20024;-79
2021/10/11 07:25:47;;;;;;;53.83;28.97;;;12.90;99.90;;;;;;6210670;23;20016;-79
2021/10/11 07:28:14;;;;;;;52.50;29.40;;;13.00;99.90;;;;;;6211386;23;20013;-78
2021/10/11 07:30:42;;;;;;;54.38;28.83;;;13.00;99.90;;;;;;6210830;23;20079;-79
2021/10/11 07:33:09;;;;;;;47.53;28.42;;;13.00;99.90;;;;;;6209579;23;20021;-79
2021/10/11 07:35:59;;;;;;;52.17;28.67;;;13.00;99.90;;;;;;6211212;23;20027;-79
2021/10/11 07:38:26;;;;;;;45.80;27.80;;;13.10;99.90;;;;;;6209314;23;20020;-79
2021/10/11 07:40:54;;;;;;;53.07;28.30;;;13.20;99.90;;;;;;6209400;23;20020;-79
2021/10/11 07:43:21;;;;;;;52.25;27.80;;;13.20;99.90;;;;;;6210255;23;20024;-79
2021/10/11 07:45:48;;;;;;;48.35;28.52;;;13.20;99.90;;;;;;6211002;23;20031;-79
2021/10/11 07:48:15;;;;;;;44.28;26.95;;;13.30;99.90;;;;;;6210074;23;20498;-79
2021/10/11 07:50:43;;;;;;;44.13;27.10;;;13.30;99.90;;;;;;6211081;23;20012;-79
2021/10/11 07:53:11;;;;;;;48.40;28.27;;;13.30;99.90;;;;;;6210741;23;20044;-79
2021/10/11 07:55:37;;;;;;;58.65;29.83;;;13.40;99.90;;;;;;6210567;23;20070;-80
2021/10/11 07:58:04;;;;;;;80.85;28.77;;;13.30;99.90;;;;;;6210327;23;20024;-79
2021/10/11 08:00:32;;;;;;;57.20;27.77;;;13.30;99.90;;;;;;6212845;23;20021;-79
2021/10/11 08:02:59;;;;;;;69.60;28.50;;;13.30;99.90;;;;;;6212921;23;20048;-79
2021/10/11 08:05:26;;;;;;;62.10;28.92;;;13.20;99.90;;;;;;6212019;23;20066;-79
2021/10/11 08:07:53;;;;;;;65.72;31.20;;;13.30;99.90;;;;;;6213644;23;20478;-79
2021/10/11 08:10:19;;;;;;;63.78;29.13;;;13.30;99.90;;;;;;6211590;23;20025;-79
2021/10/11 08:12:46;;;;;;;56.78;29.33;;;13.30;99.90;;;;;;6212691;23;20021;-79
2021/10/11 08:15:13;;;;;;;52.95;28.23;;;13.30;99.90;;;;;;6212497;23;20466;-79
2021/10/11 08:17:40;;;;;;;49.60;28.73;;;13.30;99.90;;;;;;6212942;23;20024;-79
2021/10/11 08:20:08;;;;;;;54.30;29.73;;;13.30;99.90;;;;;;6212590;23;20025;-78
2021/10/11 08:22:35;;;;;;;51.83;30.05;;;13.40;99.90;;;;;;6213002;23;20047;-79
2021/10/11 08:25:04;;;;;;;54.00;29.55;;;13.40;99.90;;;;;;6212538;23;20482;-79
2021/10/11 08:27:31;;;;;;;55.85;30.73;;;13.40;99.90;;;;;;6185240;23;20012;-79
2021/10/11 08:29:58;;;;;;;47.75;28.13;;;13.50;99.90;;;;;;6212511;23;20074;-79
2021/10/11 08:32:29;;;;;;;47.85;29.17;;;13.50;99.90;;;;;;6210794;23;20087;-79
2021/10/11 08:34:57;;;;;;;46.67;29.05;;;13.60;99.90;;;;;;6212155;23;20398;-79
2021/10/11 08:37:24;;;;;;;46.63;28.67;;;13.70;99.90;;;;;;6212088;23;20056;-79
2021/10/11 08:39:51;;;;;;;44.00;28.20;;;13.70;99.90;;;;;;6212439;23;20040;-79
2021/10/11 08:42:20;;;;;;;46.85;29.27;;;13.80;99.90;;;;;;6211826;23;20028;-78
2021/10/11 08:44:48;;;;;;;43.90;27.08;;;13.80;99.90;;;;;;6212166;23;20074;-79
2021/10/11 08:47:16;;;;;;;48.50;27.80;;;13.90;99.90;;;;;;6211874;23;20382;-79
2021/10/11 08:49:48;;;;;;;44.78;26.83;;;14.00;99.90;;;;;;6212980;23;20075;-79
2021/10/11 08:52:21;;;;;;;38.50;26.02;;;14.10;99.90;;;;;;6211854;23;20032;-79
2021/10/11 08:54:49;;;;;;;30.70;24.05;;;14.10;99.90;;;;;;6212715;23;20024;-79
2021/10/11 08:57:20;;;;;;;36.88;23.73;;;14.10;99.90;;;;;;6211484;23;20029;-79
2021/10/11 08:59:49;;;;;;;35.72;24.38;;;14.20;99.90;;;;;;6212783;23;20016;-80
2021/10/11 09:02:20;;;;;;;29.92;22.88;;;14.30;99.90;;;;;;6211313;23;20079;-79
2021/10/11 09:04:56;;;;;;;30.73;22.48;;;14.30;99.90;;;;;;6212297;23;20040;-79
2021/10/11 09:07:25;;;;;;;28.90;20.30;;;14.50;99.90;;;;;;6211663;23;20029;-79
2021/10/11 09:09:56;;;;;;;30.50;21.80;;;14.60;99.90;;;;;;6212129;23;20080;-79
2021/10/11 09:12:30;;;;;;;23.63;18.33;;;14.70;99.90;;;;;;6211810;23;20028;-79
2021/10/11 09:15:09;;;;;;;24.60;18.55;;;14.80;99.90;;;;;;6212684;23;20021;-79
2021/10/11 09:17:42;;;;;;;22.85;19.02;;;14.90;99.90;;;;;;6211868;23;20398;-79
2021/10/11 09:20:18;;;;;;;26.52;18.20;;;15.00;99.90;;;;;;6211925;23;20016;-78
2021/10/11 09:22:50;;;;;;;24.48;18.13;;;15.10;99.90;;;;;;6211852;23;20516;-79
2021/10/11 09:25:18;;;;;;;18.90;16.20;;;15.20;99.90;;;;;;6211206;23;20025;-79
2021/10/11 09:27:54;;;;;;;19.52;16.05;;;15.30;99.90;;;;;;6210890;23;20480;-79
2021/10/11 09:30:26;;;;;;;19.20;14.95;;;15.40;99.90;;;;;;6211968;23;20549;-80
2021/10/11 09:33:13;;;;;;;18.77;14.43;;;15.50;99.90;;;;;;6212122;23;20070;-79
2021/10/11 09:35:43;;;;;;;20.13;15.27;;;15.60;99.90;;;;;;6210211;23;20532;-79
2021/10/11 09:38:29;;;;;;;19.13;15.00;;;15.70;99.90;;;;;;6211364;23;20399;-80
2021/10/11 09:41:00;;;;;;;17.42;13.93;;;15.80;99.90;;;;;;6211885;23;20024;-80
2021/10/11 09:43:30;;;;;;;16.45;14.15;;;16.00;99.90;;;;;;6211607;23;20086;-79
2021/10/11 09:46:12;;;;;;;19.38;14.68;;;16.10;99.90;;;;;;6211959;23;20021;-79
2021/10/11 09:48:50;;;;;;;18.83;13.68;;;16.20;99.90;;;;;;6185611;23;20470;-81
2021/10/11 09:51:21;;;;;;;16.83;13.53;;;16.20;99.90;;;;;;6210788;23;20020;-79
2021/10/11 09:53:49;;;;;;;16.85;12.43;;;16.20;99.90;;;;;;6210969;23;20069;-79
2021/10/11 09:56:16;;;;;;;14.05;12.48;;;16.20;99.90;;;;;;6211393;23;20103;-79
2021/10/11 09:58:43;;;;;;;17.70;13.10;;;16.20;99.90;;;;;;6212121;23;20479;-79
2021/10/11 10:01:11;;;;;;;14.75;11.70;;;16.20;99.90;;;;;;6210563;23;20078;-79
2021/10/11 10:03:39;;;;;;;14.02;11.80;;;16.20;99.90;;;;;;6211477;23;20086;-79
2021/10/11 10:06:09;;;;;;;12.18;9.70;;;16.30;99.90;;;;;;6210769;23;20017;-79
2021/10/11 10:08:39;;;;;;;13.15;11.55;;;16.30;99.90;;;;;;6211555;23;20029;-79
2021/10/11 10:11:07;;;;;;;14.05;11.82;;;16.40;99.90;;;;;;6211406;23;20051;-78
2021/10/11 10:13:46;;;;;;;16.27;12.38;;;16.40;99.90;;;;;;6211684;23;20071;-79
2021/10/11 10:16:14;;;;;;;12.45;11.18;;;16.50;99.90;;;;;;6209620;23;20013;-80
2021/10/11 10:18:43;;;;;;;14.35;12.00;;;16.50;99.90;;;;;;6212040;23;20020;-79
2021/10/11 10:21:14;;;;;;;;;;;16.60;99.90;;;;;;6210901;23;20478;-79
2021/10/11 10:23:55;;;;;;;16.70;12.52;;;16.60;99.90;;;;;;6184764;23;19915;-79
2021/10/11 10:26:36;;;;;;;14.65;12.50;;;16.60;99.90;;;;;;6211174;23;20021;-79
2021/10/11 10:29:21;;;;;;;14.95;12.00;;;16.60;99.90;;;;;;6211618;23;20512;-79
2021/10/11 10:31:48;;;;;;;12.10;10.13;;;16.60;99.90;;;;;;6210661;23;20051;-79
2021/10/11 10:34:23;;;;;;;12.57;11.23;;;16.70;99.90;;;;;;6210267;23;20479;-79
2021/10/11 10:37:04;;;;;;;15.25;11.05;;;16.70;99.90;;;;;;6210176;23;20024;-80
2021/10/11 10:39:49;;;;;;;12.85;10.20;;;16.80;99.90;;;;;;6211203;23;20013;-80
2021/10/11 10:42:27;;;;;;;13.30;9.32;;;16.90;99.90;;;;;;6210477;23;20051;-80
2021/10/11 10:44:55;;;;;;;;;;;16.90;99.90;;;;;;6185184;23;20036;-81
2021/10/11 10:47:33;;;;;;;12.63;8.52;;;16.90;99.90;;;;;;6184011;23;20317;-80
2021/10/11 10:50:01;;;;;;;10.77;8.68;;;16.90;99.90;;;;;;6185396;23;20079;-80
2021/10/11 10:52:29;;;;;;;9.50;8.25;;;17.00;99.90;;;;;;6184673;23;20024;-80
2021/10/11 10:54:59;;;;;;;8.73;7.15;;;17.00;99.90;;;;;;6211354;23;20012;-79
2021/10/11 10:57:29;;;;;;;10.20;7.22;;;17.10;99.90;;;;;;6210675;23;20020;-80
2021/10/11 11:00:02;;;;;;;9.50;6.88;;;17.20;99.90;;;;;;6211538;23;20021;-80
2021/10/11 11:02:31;;;;;;;7.72;5.97;;;17.30;99.90;;;;;;6210870;23;20017;-79
2021/10/11 11:05:00;;;;;;;7.35;5.80;;;17.40;99.90;;;;;;6209353;23;20051;-79
2021/10/11 11:07:39;;;;;;;8.15;6.13;;;17.40;99.90;;;;;;6210005;23;20162;-79
2021/10/11 11:10:14;;;;;;;9.13;6.07;;;17.50;99.90;;;;;;6210286;23;20352;-79
2021/10/11 11:12:44;;;;;;;6.60;4.97;;;17.50;99.90;;;;;;6210490;23;20505;-79
2021/10/11 11:15:22;;;;;;;7.38;5.32;;;17.60;99.90;;;;;;6209587;23;20557;-80
2021/10/11 11:17:50;;;;;;;;;;;17.70;99.90;;;;;;6212071;23;20020;-80
2021/10/11 11:20:23;;;;;;;10.00;5.38;;;17.70;99.90;;;;;;6183828;23;19916;-80
2021/10/11 11:22:51;;;;;;;5.45;4.22;;;17.70;99.90;;;;;;6211210;23;20087;-79
2021/10/11 11:25:28;;;;;;;7.18;4.75;;;17.70;99.90;;;;;;6210536;23;20020;-80
2021/10/11 11:27:57;;;;;;;6.40;4.78;;;17.60;99.90;;;;;;6211381;23;20024;-80
2021/10/11 11:30:25;;;;;;;7.82;4.10;;;17.60;99.90;;;;;;6210432;23;20024;-80
2021/10/11 11:32:55;;;;;;;7.03;3.60;;;17.60;99.90;;;;;;6210905;23;20074;-80
2021/10/11 11:35:41;;;;;;;9.35;4.10;;;17.60;99.90;;;;;;6210145;23;20021;-80
2021/10/11 11:38:11;;;;;;;7.00;3.45;;;17.60;99.90;;;;;;6210354;23;20017;-80
2021/10/11 11:40:43;;;;;;;5.22;3.30;;;17.60;99.90;;;;;;6184977;23;20049;-80
2021/10/11 11:43:11;;;;;;;5.68;3.03;;;17.70;99.90;;;;;;6210101;23;20402;-80
2021/10/11 11:45:45;;;;;;;8.40;3.90;;;17.80;99.90;;;;;;6210321;23;20557;-80
2021/10/11 11:48:30;;;;;;;6.55;3.65;;;17.90;99.90;;;;;;6209383;23;20020;-79
2021/10/11 11:51:00;;;;;;;6.65;3.60;;;18.00;99.90;;;;;;6211109;23;20079;-79
2021/10/11 11:53:30;;;;;;;8.68;3.85;;;18.00;99.90;;;;;;6210349;23;20458;-80
2021/10/11 11:55:59;;;;;;;7.97;3.65;;;18.10;99.90;;;;;;6184321;23;20500;-79
2021/10/11 11:58:34;;;;;;;7.57;3.25;;;18.10;99.90;;;;;;6210123;23;20367;-80
2021/10/11 12:01:08;;;;;;;5.97;3.90;;;18.10;99.90;;;;;;6209464;23;20017;-80
2021/10/11 12:03:37;;;;;;;5.15;3.15;;;18.10;99.90;;;;;;6206695;23;20020;-80
2021/10/11 12:06:06;;;;;;;6.55;3.40;;;18.10;99.90;;;;;;6209660;23;20029;-79
2021/10/11 12:08:34;;;;;;;5.57;3.47;;;18.10;99.90;;;;;;6209318;23;20119;-80
2021/10/11 12:11:19;;;;;;;5.55;3.13;;;18.10;99.90;;;;;;6209809;23;20437;-79
2021/10/11 12:13:47;;;;;;;5.03;3.38;;;18.20;99.90;;;;;;6184706;23;20020;-80
2021/10/11 12:16:17;;;;;;;7.05;3.40;;;18.30;99.90;;;;;;6209669;23;20029;-80
2021/10/11 12:18:52;;;;;;;6.40;3.63;;;18.40;99.90;;;;;;6210619;23;20012;-79
2021/10/11 12:21:24;;;;;;;7.28;4.03;;;18.40;99.90;;;;;;6209797;23;20024;-80
2021/10/11 12:23:57;;;;;;;6.63;3.80;;;18.50;99.90;;;;;;6184699;23;20362;-80
2021/10/11 12:26:26;;;;;;;5.72;3.42;;;18.40;99.90;;;;;;6208254;23;20029;-79
2021/10/11 12:28:59;;;;;;;7.38;4.13;;;18.40;99.90;;;;;;6211209;23;20358;-80
2021/10/11 12:31:33;;;;;;;10.23;4.57;;;18.40;99.90;;;;;;6182924;23;20024;-80
2021/10/11 12:34:14;;;;;;;7.32;3.88;;;18.40;99.90;;;;;;6183955;23;20412;-80
2021/10/11 12:36:50;;;;;;;6.30;4.10;;;18.50;99.90;;;;;;6210646;23;20070;-80
2021/10/11 12:39:20;;;;;;;6.53;4.00;;;18.50;99.90;;;;;;6209327;23;20020;-80
2021/10/11 12:41:50;;;;;;;7.63;3.40;;;18.50;99.90;;;;;;6184615;23;20028;-79
2021/10/11 12:44:24;;;;;;;6.25;3.80;;;18.40;99.90;;;;;;6183620;23;20418;-80
2021/10/11 12:46:52;;;;;;;7.45;2.80;;;18.40;99.90;;;;;;6211968;23;20023;-79
2021/10/11 12:49:48;;;;;;;5.22;3.13;;;18.50;99.90;;;;;;6184915;23;20021;-80
2021/10/11 12:52:15;;;;;;;3.88;2.60;;;18.50;99.90;;;;;;6211677;23;20036;-80
2021/10/11 12:54:42;;;;;;;5.28;2.35;;;18.50;99.90;;;;;;6186543;23;20333;-80
2021/10/11 12:57:09;;;;;;;7.40;2.30;;;18.50;99.90;;;;;;6184996;23;20410;-80
2021/10/11 12:59:39;;;;;;;6.55;2.38;;;18.50;99.90;;;;;;6211363;23;20489;-80
2021/10/11 13:02:06;;;;;;;6.80;2.22;;;18.50;99.90;;;;;;6185456;23;20027;-80
2021/10/11 13:04:35;;;;;;;3.80;2.00;;;18.50;99.90;;;;;;6185927;23;20398;-80
2021/10/11 13:07:02;;;;;;;;;;;18.60;99.90;;;;;;6212310;23;20020;-80
2021/10/11 13:09:29;;;;;;;7.50;1.70;;;18.60;99.90;;;;;;6184675;23;19923;-80
2021/10/11 13:11:56;;;;;;;4.80;1.60;;;18.60;99.90;;;;;;6186272;23;20343;-80
2021/10/11 13:14:23;;;;;;;3.53;1.48;;;18.60;99.90;;;;;;6210023;23;20091;-80
2021/10/11 13:16:50;;;;;;;4.90;2.00;;;18.60;99.90;;;;;;6196284;23;20024;-80
2021/10/11 13:19:17;;;;;;;4.07;1.20;;;18.70;99.90;;;;;;6184980;23;20082;-80
2021/10/11 13:21:46;;;;;;;3.22;1.38;;;18.70;99.90;;;;;;6186136;23;20031;-80
2021/10/11 13:24:13;;;;;;;6.38;1.95;;;18.70;99.90;;;;;;6209909;23;20021;-80
2021/10/11 13:26:40;;;;;;;5.53;2.10;;;18.70;99.90;;;;;;6212319;23;20028;-80
2021/10/11 14:32:09;;;;;;;3.97;1.75;;;18.80;99.90;;;;;;6209989;23;20478;-80
2021/10/11 16:05:00;;;;;;;;;;;18.60;99.90;;;;;;6210461;23;20071;-80
2021/10/11 16:07:28;;;;;;;4.53;1.50;;;18.60;99.90;;;;;;6208530;23;19920;-79
2021/10/11 16:09:55;;;;;;;4.82;1.83;;;18.60;99.90;;;;;;6183790;23;20008;-79
2021/10/11 16:12:22;;;;;;;5.57;1.65;;;18.60;99.90;;;;;;6206671;23;20021;-79
2021/10/11 16:14:50;;;;;;;5.35;1.90;;;18.50;99.90;;;;;;6184007;23;20070;-81
2021/10/11 16:17:37;;;;;;;4.45;1.50;;;18.50;99.90;;;;;;6208967;23;20376;-81
2021/10/11 16:20:08;;;;;;;4.78;1.50;;;18.50;99.90;;;;;;6210170;23;20040;-80
2021/10/11 16:22:36;;;;;;;5.13;1.67;;;18.50;99.90;;;;;;6210947;23;20966;-82
2021/10/11 16:25:05;;;;;;;5.03;1.45;;;18.50;99.90;;;;;;6210978;23;20086;-80
2021/10/11 16:27:33;;;;;;;4.82;1.48;;;18.40;99.90;;;;;;6211440;23;20071;-81
2021/10/11 16:30:00;;;;;;;6.85;1.90;;;18.40;99.90;;;;;;6185071;23;20024;-79
2021/10/11 16:32:40;;;;;;;6.47;1.92;;;18.40;99.90;;;;;;6211645;23;20016;-80
2021/10/11 16:35:07;;;;;;;4.50;1.60;;;18.40;99.90;;;;;;6211287;23;20028;-81
2021/10/11 16:37:35;;;;;;;6.75;1.58;;;18.40;99.90;;;;;;6210791;23;20347;-79
2021/10/11 16:40:02;;;;;;;7.22;1.60;;;18.30;99.90;;;;;;6209380;23;20017;-78
2021/10/11 16:42:30;;;;;;;5.35;1.50;;;18.30;99.90;;;;;;6207299;23;20029;-79
2021/10/11 16:44:57;;;;;;;5.28;1.70;;;18.20;99.90;;;;;;6206829;23;20029;-79
2021/10/11 16:47:25;;;;;;;5.22;1.73;;;18.20;99.90;;;;;;6206759;23;20034;-78
2021/10/11 16:49:52;;;;;;;6.60;1.70;;;18.10;99.90;;;;;;6179974;23;20035;-78
2021/10/11 16:52:19;;;;;;;5.28;1.98;;;18.00;99.90;;;;;;6206059;23;20032;-78
2021/10/11 16:54:47;;;;;;;4.25;1.60;;;18.00;99.90;;;;;;6182880;23;20040;-78
2021/10/11 16:57:14;;;;;;;6.45;1.70;;;17.90;99.90;;;;;;6185126;23;20367;-78
2021/10/11 16:59:43;;;;;;;8.80;2.20;;;17.90;99.90;;;;;;6211719;23;20075;-78
2021/10/11 17:02:10;;;;;;;6.95;1.70;;;17.80;99.90;;;;;;6210556;23;20399;-80
2021/10/11 17:04:37;;;;;;;6.25;1.65;;;17.70;99.90;;;;;;6208651;23;20920;-78
2021/10/11 17:07:08;;;;;;;3.55;1.65;;;17.60;99.90;;;;;;6210213;23;20016;-80
2021/10/11 17:09:35;;;;;;;5.90;1.70;;;17.50;99.90;;;;;;6210875;23;20066;-80
2021/10/11 17:12:02;;;;;;;6.55;1.58;;;17.40;99.90;;;;;;6211530;23;20090;-80
2021/10/11 17:14:29;;;;;;;6.10;1.73;;;17.40;99.90;;;;;;6210186;23;20355;-80
2021/10/11 17:16:56;;;;;;;4.95;1.70;;;17.30;99.90;;;;;;6210774;23;20021;-80
2021/10/11 17:19:25;;;;;;;5.70;1.60;;;17.20;99.90;;;;;;6183926;23;20447;-80
2021/10/11 17:21:51;;;;;;;7.97;1.73;;;17.10;99.90;;;;;;6211285;23;20067;-80
2021/10/11 17:24:19;;;;;;;9.45;1.95;;;17.00;99.90;;;;;;6210793;23;20430;-80
2021/10/11 17:26:48;;;;;;;5.50;1.80;;;16.90;99.90;;;;;;6184917;23;20017;-79
2021/10/11 17:29:15;;;;;;;7.88;2.22;;;16.80;99.90;;;;;;6210671;23;20032;-79
2021/10/11 17:31:42;;;;;;;6.53;1.70;;;16.70;99.90;;;;;;6184918;23;20470;-79
2021/10/11 17:34:10;;;;;;;7.43;1.92;;;16.60;99.90;;;;;;6210565;23;20032;-80
2021/10/11 17:36:39;;;;;;;;;;;16.60;99.90;;;;;;6210693;23;20024;-78
2021/10/11 17:39:06;;;;;;;7.57;1.88;;;16.40;99.90;;;;;;6211116;23;19916;-79
2021/10/11 17:41:33;;;;;;;7.72;2.10;;;16.30;99.90;;;;;;6211299;23;20542;-81
2021/10/11 17:44:00;;;;;;;7.25;1.70;;;16.20;99.90;;;;;;6210018;23;20406;-80
2021/10/11 17:46:27;;;;;;;8.40;1.58;;;16.20;99.90;;;;;;6210672;23;20021;-80
2021/10/11 17:48:55;;;;;;;;;;;16.10;99.90;;;;;;6211775;23;20354;-79
2021/10/11 17:51:22;;;;;;;6.97;1.60;;;16.00;99.90;;;;;;6209965;23;19920;-80
2021/10/11 17:53:49;;;;;;;7.65;2.20;;;15.90;99.90;;;;;;6211231;23;20078;-79
2021/10/11 17:56:16;;;;;;;7.55;1.77;;;15.80;99.90;;;;;;6210133;23;20412;-81
2021/10/11 17:58:43;;;;;;;7.97;2.20;;;15.70;99.90;;;;;;6210053;23;20664;-81
2021/10/11 18:01:10;;;;;;;8.90;1.95;;;15.70;99.90;;;;;;6209368;23;20020;-82
2021/10/11 18:03:37;;;;;;;8.20;1.80;;;15.50;99.90;;;;;;6211026;23;20017;-81
2021/10/11 18:06:06;;;;;;;8.95;2.10;;;15.50;99.90;;;;;;6209712;23;20025;-83
2021/10/11 18:08:33;;;;;;;;;;;15.40;99.90;;;;;;6211733;23;20032;-82
2021/10/11 18:11:02;;;;;;;9.25;2.55;;;15.30;99.90;;;;;;6209978;23;19920;-80
2021/10/11 18:13:29;;;;;;;8.07;1.85;;;15.20;99.90;;;;;;6209664;23;20391;-81
2021/10/11 18:15:56;;;;;;;10.70;2.03;;;15.10;99.90;;;;;;6210817;23;20024;-81
2021/10/11 18:18:23;;;;;;;7.30;1.80;;;15.10;99.90;;;;;;6210564;23;20032;-81
2021/10/11 18:20:51;;;;;;;8.73;1.95;;;15.00;99.90;;;;;;6207189;23;20024;-81
2021/10/11 18:23:22;;;;;;;9.23;1.77;;;14.90;99.90;;;;;;6206330;23;20025;-81
2021/10/11 18:25:50;;;;;;;7.78;2.03;;;14.90;99.90;;;;;;6206611;23;20478;-82
2021/10/11 18:28:17;;;;;;;7.03;1.83;;;14.80;99.90;;;;;;6206421;23;20047;-82
2021/10/11 18:30:44;;;;;;;6.57;2.10;;;14.70;99.90;;;;;;6207560;23;20306;-82
2021/10/11 18:33:11;;;;;;;10.27;1.90;;;14.60;99.90;;;;;;6205695;23;20021;-81
2021/10/11 18:35:38;;;;;;;11.13;2.53;;;14.60;99.90;;;;;;6207286;23;20021;-82
2021/10/11 18:38:04;;;;;;;6.20;2.20;;;14.50;99.90;;;;;;6206733;23;20047;-81
2021/10/11 18:40:32;;;;;;;10.65;2.72;;;14.50;99.90;;;;;;6207426;23;20037;-81
2021/10/11 18:42:59;;;;;;;9.80;2.30;;;14.50;99.90;;;;;;6180199;23;20025;-81
2021/10/11 18:45:26;;;;;;;7.28;1.90;;;14.40;99.90;;;;;;6206460;23;20078;-81
2021/10/11 18:47:53;;;;;;;8.23;1.88;;;14.40;99.90;;;;;;6206797;23;20082;-82
2021/10/11 18:50:21;;;;;;;8.45;2.40;;;14.30;99.90;;;;;;6179254;23;20370;-81
2021/10/11 18:52:54;;;;;;;7.18;1.95;;;14.20;99.90;;;;;;6204378;23;20082;-81
2021/10/11 18:55:22;;;;;;;15.43;2.20;;;14.20;99.90;;;;;;6205768;23;20363;-80
2021/10/11 18:57:50;;;;;;;7.70;1.80;;;14.10;99.90;;;;;;6205971;23;20410;-82
2021/10/11 19:00:20;;;;;;;10.57;2.10;;;14.10;99.90;;;;;;6205316;23;20145;-81
2021/10/11 19:02:48;;;;;;;7.97;2.10;;;14.00;99.90;;;;;;6205285;23;20017;-81
2021/10/11 19:05:15;;;;;;;10.90;1.90;;;14.00;99.90;;;;;;6205585;23;20048;-80
2021/10/11 19:07:43;;;;;;;8.43;1.93;;;13.90;99.90;;;;;;6205945;23;20100;-81
2021/10/11 19:10:11;;;;;;;13.10;2.30;;;13.90;99.90;;;;;;6205808;23;20070;-80
2021/10/11 19:12:38;;;;;;;10.63;2.28;;;13.80;99.90;;;;;;6205997;23;20029;-80
2021/10/11 19:15:07;;;;;;;8.27;1.73;;;13.80;99.90;;;;;;6206477;23;20417;-81
2021/10/11 19:17:34;;;;;;;7.30;2.13;;;13.70;99.90;;;;;;6206706;23;20020;-81
2021/10/11 19:20:01;;;;;;;12.70;1.92;;;13.70;99.90;;;;;;6207059;23;20021;-80
2021/10/11 19:22:28;;;;;;;11.50;2.03;;;13.70;99.90;;;;;;6206099;23;20024;-82
2021/10/11 19:24:56;;;;;;;10.10;2.00;;;13.60;99.90;;;;;;6180754;23;20028;-82
2021/10/11 19:27:23;;;;;;;10.85;2.13;;;13.60;99.90;;;;;;6205751;23;20028;-80
2021/10/11 19:29:51;;;;;;;9.88;1.95;;;13.50;99.90;;;;;;6207920;23;20016;-81
2021/10/11 19:32:17;;;;;;;8.88;2.00;;;13.50;99.90;;;;;;6206236;23;20032;-81
2021/10/11 19:34:44;;;;;;;11.73;2.30;;;13.40;99.90;;;;;;6206954;23;20083;-81
2021/10/11 19:37:12;;;;;;;9.85;2.15;;;13.40;99.90;;;;;;6205873;23;20102;-81
2021/10/11 19:39:39;;;;;;;10.95;2.30;;;13.30;99.90;;;;;;6206992;23;20040;-80
2021/10/11 19:42:06;;;;;;;9.38;2.15;;;13.30;99.90;;;;;;6179968;23;20043;-81
2021/10/11 19:44:33;;;;;;;15.45;2.90;;;13.30;99.90;;;;;;6179738;23;20556;-81
2021/10/11 19:47:00;;;;;;;12.05;2.83;;;13.20;99.90;;;;;;6205282;23;20021;-80
2021/10/11 19:49:27;;;;;;;8.88;2.00;;;13.20;99.90;;;;;;6205135;23;20021;-81
2021/10/11 19:51:55;;;;;;;7.75;2.00;;;13.10;99.90;;;;;;6206378;23;20016;-80
2021/10/11 19:54:22;;;;;;;9.55;2.42;;;13.10;99.90;;;;;;6203493;23;20730;-81
2021/10/11 19:56:49;;;;;;;9.77;2.15;;;13.00;99.90;;;;;;6206375;23;20024;-81
2021/10/11 19:59:16;;;;;;;9.57;2.25;;;13.00;99.90;;;;;;6205839;23;20021;-80
2021/10/11 20:01:43;;;;;;;10.88;2.03;;;13.00;99.90;;;;;;6205242;23;20047;-80
2021/10/11 20:04:11;;;;;;;15.32;2.35;;;12.90;99.90;;;;;;6205206;23;20028;-80
2021/10/11 20:06:38;;;;;;;13.77;2.17;;;12.90;99.90;;;;;;6206594;23;20032;-81
2021/10/11 20:09:06;;;;;;;8.02;1.90;;;12.80;99.90;;;;;;6180086;23;20021;-80
2021/10/11 20:11:33;;;;;;;9.90;2.47;;;12.80;99.90;;;;;;6206849;23;20074;-80
2021/10/11 20:13:59;;;;;;;9.15;2.05;;;12.80;99.90;;;;;;6205244;23;20076;-81
2021/10/11 20:16:26;;;;;;;10.52;2.67;;;12.70;99.90;;;;;;6206102;23;20024;-81
2021/10/11 20:18:53;;;;;;;16.35;2.60;;;12.70;99.90;;;;;;6179888;23;20419;-81
2021/10/11 20:21:20;;;;;;;10.77;2.20;;;12.70;99.90;;;;;;6205416;23;20032;-80
2021/10/11 20:23:48;;;;;;;9.57;2.17;;;12.70;99.90;;;;;;6206340;23;20470;-81
2021/10/11 20:26:15;;;;;;;11.93;2.42;;;12.60;99.90;;;;;;6206121;23;20031;-83
2021/10/11 20:28:42;;;;;;;12.02;2.03;;;12.60;99.90;;;;;;6205807;23;20017;-83
2021/10/11 20:31:10;;;;;;;11.50;2.60;;;12.50;99.90;;;;;;6205827;23;20028;-80
2021/10/11 20:33:38;;;;;;;4.90;1.85;;;12.50;99.90;;;;;;6205612;23;20016;-83
2021/10/11 20:36:05;;;;;;;11.55;2.40;;;12.50;99.90;;;;;;6205962;23;20032;-82
2021/10/11 20:38:33;;;;;;;8.60;2.50;;;12.40;99.90;;;;;;6206857;23;20025;-82
2021/10/11 20:41:01;;;;;;;12.73;2.72;;;12.40;99.90;;;;;;6206463;23;20399;-83
2021/10/11 20:43:28;;;;;;;13.70;2.80;;;12.40;99.90;;;;;;6205014;23;20032;-82
2021/10/11 20:45:55;;;;;;;13.70;2.50;;;12.40;99.90;;;;;;6179809;23;20067;-82
2021/10/11 20:48:22;;;;;;;12.48;2.50;;;12.30;99.90;;;;;;6205194;23;20048;-80
2021/10/11 20:50:49;;;;;;;10.52;2.60;;;12.30;99.90;;;;;;6206304;23;20028;-82
2021/10/11 20:53:17;;;;;;;15.20;2.85;;;12.20;99.90;;;;;;6207882;23;20021;-81
2021/10/11 20:55:45;;;;;;;10.30;2.25;;;12.20;99.90;;;;;;6184308;23;20043;-82
2021/10/11 20:58:12;;;;;;;11.45;2.40;;;12.20;99.90;;;;;;6210171;23;20016;-81
2021/10/11 21:00:42;;;;;;;14.02;2.47;;;12.20;99.90;;;;;;6200685;23;20020;-84
2021/10/11 21:03:18;;;;;;;11.35;2.60;;;12.10;99.90;;;;;;6210266;23;20017;-84
2021/10/11 21:06:20;;;;;;;11.05;2.60;;;12.10;99.90;;;;;;6207403;23;20025;-83
2021/10/11 21:09:08;;;;;;;13.35;2.42;;;12.10;99.90;;;;;;6209424;23;20016;-82
2021/10/11 21:11:39;;;;;;;10.70;2.63;;;12.00;99.90;;;;;;6212509;23;20024;-83
2021/10/11 21:14:09;;;;;;;15.90;2.97;;;12.00;99.90;;;;;;6210054;23;20067;-84
2021/10/11 21:16:51;;;;;;;12.57;3.58;;;12.00;99.90;;;;;;6195044;23;20078;-83
2021/10/11 21:19:32;;;;;;;12.38;2.30;;;11.90;99.90;;;;;;6174918;23;20042;-83
2021/10/11 21:22:15;;;;;;;12.82;2.90;;;11.90;99.90;;;;;;6212544;23;20021;-84
2021/10/11 21:25:26;;;;;;;9.02;2.50;;;11.80;99.90;;;;;;6131984;23;20052;-84
2021/10/11 21:28:38;;;;;;;14.70;2.80;;;11.80;99.90;;;;;;6173945;23;20021;-84